createdAt,value
2023-11-04T00:01:07.765Z,5.49
2023-11-04T00:04:21.696Z,5.54
2023-11-04T00:07:28.450Z,5.38
2023-11-04T00:10:37.066Z,5.52
2023-11-04T00:13:43.748Z,5.25
2023-11-04T00:16:49.684Z,5.06
2023-11-04T00:19:56.219Z,4.81
2023-11-04T00:23:02.177Z,4.79
2023-11-04T00:26:11.535Z,4.87
2023-11-04T00:29:19.014Z,5.24
2023-11-04T00:32:26.310Z,5.50
2023-11-04T00:35:32.193Z,5.66
2023-11-04T00:38:39.035Z,5.71
2023-11-04T00:41:48.411Z,5.89
2023-11-04T00:44:56.860Z,6.06
2023-11-04T00:48:02.946Z,5.94
2023-11-04T00:51:10.553Z,5.45
2023-11-04T00:54:17.132Z,4.85
2023-11-04T00:57:26.423Z,5.03
2023-11-04T01:00:32.430Z,4.75
2023-11-04T01:03:39.920Z,4.58
2023-11-04T01:06:45.978Z,4.32
2023-11-04T01:09:53.241Z,4.48
2023-11-04T01:13:01.798Z,4.61
2023-11-04T01:16:09.882Z,6.55
2023-11-04T01:19:16.164Z,5.83
2023-11-04T01:22:22.772Z,5.94
2023-11-04T01:25:28.608Z,5.49
2023-11-04T01:28:37.949Z,5.39
2023-11-04T01:31:43.853Z,6.21
2023-11-04T01:34:50.595Z,4.97
2023-11-04T01:37:56.516Z,4.53
2023-11-04T01:41:03.246Z,4.71
2023-11-04T01:44:11.847Z,4.35
2023-11-04T01:47:19.842Z,4.81
2023-11-04T01:50:25.956Z,4.63
2023-11-04T01:53:33.076Z,4.32
2023-11-04T01:56:43.173Z,3.94
2023-11-04T01:59:52.672Z,4.95
2023-11-04T02:03:00.616Z,4.70
2023-11-04T02:06:08.320Z,4.50
2023-11-04T02:09:17.084Z,5.62
2023-11-04T02:12:26.842Z,4.79
2023-11-04T02:15:35.288Z,3.54
2023-11-04T02:18:42.130Z,3.67
2023-11-04T02:21:51.403Z,3.42
2023-11-04T02:25:00.177Z,3.83
2023-11-04T02:28:09.229Z,3.78
2023-11-04T02:31:15.774Z,4.26
2023-11-04T02:34:22.096Z,3.58
2023-11-04T02:37:31.422Z,3.87
2023-11-04T02:40:37.289Z,4.50
2023-11-04T02:43:44.091Z,4.28
2023-11-04T02:46:50.743Z,3.50
2023-11-04T02:49:57.589Z,3.52
2023-11-04T02:53:06.233Z,3.68
2023-11-04T02:56:13.866Z,3.45
2023-11-04T02:59:19.769Z,3.98
2023-11-04T03:02:26.426Z,4.61
2023-11-04T03:05:37.259Z,3.83
2023-11-04T03:08:47.557Z,4.04
2023-11-04T03:11:53.776Z,3.50
2023-11-04T03:15:00.437Z,3.47
2023-11-04T03:18:06.581Z,3.54
2023-11-04T03:21:13.860Z,3.68
2023-11-04T03:24:23.856Z,3.72
2023-11-04T03:27:32.186Z,3.78
2023-11-04T03:30:38.859Z,3.73
2023-11-04T03:33:45.661Z,3.56
2023-11-04T03:36:52.729Z,3.70
2023-11-04T03:40:02.392Z,3.72
2023-11-04T03:43:08.776Z,3.71
2023-11-04T03:46:15.356Z,3.61
2023-11-04T03:49:22.148Z,3.57
2023-11-04T03:52:32.243Z,3.48
2023-11-04T03:55:42.978Z,3.47
2023-11-04T03:58:49.611Z,3.74
2023-11-04T04:01:55.389Z,3.45
2023-11-04T04:05:02.270Z,3.43
2023-11-04T04:08:10.858Z,3.51
2023-11-04T04:11:25.636Z,3.55
2023-11-04T04:14:31.593Z,3.59
2023-11-04T04:17:38.400Z,3.88
2023-11-04T04:20:45.819Z,3.67
2023-11-04T04:23:52.559Z,3.69
2023-11-04T04:27:00.990Z,3.69
2023-11-04T04:30:09.708Z,3.59
2023-11-04T04:33:16.218Z,3.51
2023-11-04T04:36:22.991Z,3.26
2023-11-04T04:39:29.052Z,4.28
2023-11-04T04:42:38.304Z,4.86
2023-11-04T04:45:44.615Z,5.43
2023-11-04T04:48:51.390Z,6.22
2023-11-04T04:51:57.353Z,4.00
2023-11-04T04:55:03.880Z,4.09
2023-11-04T04:58:12.877Z,5.01
2023-11-04T05:01:22.569Z,5.58
2023-11-04T05:04:28.603Z,5.85
2023-11-04T05:07:35.253Z,3.89
2023-11-04T05:10:42.457Z,4.57
2023-11-04T05:13:51.936Z,4.20
2023-11-04T05:16:57.864Z,4.35
2023-11-04T05:20:05.561Z,4.56
2023-11-04T05:23:11.900Z,4.74
2023-11-04T05:26:18.430Z,4.72
2023-11-04T05:29:26.830Z,4.79
2023-11-04T05:32:33.455Z,5.35
2023-11-04T05:35:39.394Z,4.62
2023-11-04T05:38:46.006Z,4.56
2023-11-04T05:41:51.904Z,5.92
2023-11-04T05:45:01.119Z,5.49
2023-11-04T05:48:07.899Z,5.42
2023-11-04T05:51:15.280Z,6.59
2023-11-04T05:54:21.277Z,5.09
2023-11-04T05:57:27.817Z,4.71
2023-11-04T06:00:37.637Z,5.03
2023-11-04T06:03:44.436Z,5.04
2023-11-04T06:06:50.515Z,5.68
2023-11-04T06:09:57.293Z,7.13
2023-11-04T06:13:03.854Z,6.31
2023-11-04T06:16:13.537Z,5.79
2023-11-04T06:19:19.976Z,5.78
2023-11-04T06:22:26.665Z,5.63
2023-11-04T06:25:32.528Z,6.30
2023-11-04T06:28:39.042Z,5.04
2023-11-04T06:31:47.536Z,5.74
2023-11-04T06:34:54.041Z,5.62
2023-11-04T06:37:59.926Z,6.43
2023-11-04T06:41:06.892Z,6.68
2023-11-04T06:44:12.672Z,6.45
2023-11-04T06:47:22.681Z,6.68
2023-11-04T06:50:28.546Z,5.95
2023-11-04T06:53:35.698Z,5.74
2023-11-04T06:56:42.152Z,5.52
2023-11-04T06:59:48.678Z,5.62
2023-11-04T07:02:57.282Z,6.02
2023-11-04T07:06:04.956Z,5.51
2023-11-04T07:09:11.968Z,5.96
2023-11-04T07:12:19.066Z,5.79
2023-11-04T07:15:25.063Z,5.58
2023-11-04T07:18:34.977Z,5.98
2023-11-04T07:21:42.888Z,5.70
2023-11-04T07:24:49.542Z,5.68
2023-11-04T07:27:55.596Z,5.62
2023-11-04T07:31:02.197Z,5.65
2023-11-04T07:34:10.845Z,5.65
2023-11-04T07:37:17.618Z,6.06
2023-11-04T07:40:25.337Z,5.49
2023-11-04T07:43:33.727Z,5.68
2023-11-04T07:46:42.045Z,5.36
2023-11-04T07:49:51.519Z,5.52
2023-11-04T07:52:59.255Z,5.42
2023-11-04T07:56:06.300Z,5.20
2023-11-04T07:59:12.380Z,5.07
2023-11-04T08:02:19.210Z,5.19
2023-11-04T08:05:27.829Z,5.44
2023-11-04T08:08:34.409Z,5.56
2023-11-04T08:11:40.274Z,5.57
2023-11-04T08:14:46.858Z,5.63
2023-11-04T08:17:53.144Z,5.24
2023-11-04T08:21:02.706Z,5.10
2023-11-04T08:24:12.723Z,4.71
2023-11-04T08:27:19.273Z,4.54
2023-11-04T08:30:25.407Z,3.91
2023-11-04T08:33:32.076Z,3.77
2023-11-04T08:36:40.526Z,3.58
2023-11-04T08:47:10.752Z,4.15
2023-11-04T08:50:33.808Z,3.65
2023-11-04T08:54:00.385Z,3.25
2023-11-04T08:57:12.605Z,3.11
2023-11-04T09:00:19.865Z,3.45
2023-11-04T09:03:26.749Z,3.34
2023-11-04T09:06:33.549Z,2.97
2023-11-04T09:09:42.937Z,3.09
2023-11-04T09:12:49.389Z,3.88
2023-11-04T09:15:56.010Z,4.62
2023-11-04T09:19:02.955Z,3.29
2023-11-04T09:22:09.689Z,3.00
2023-11-04T09:25:22.044Z,3.43
2023-11-04T09:28:28.625Z,4.07
2023-11-04T09:31:34.682Z,4.47
2023-11-04T09:34:41.425Z,4.26
2023-11-04T09:37:47.642Z,4.17
2023-11-04T09:40:57.458Z,3.64
2023-11-04T09:44:04.691Z,4.05
2023-11-04T09:47:14.519Z,3.63
2023-11-04T09:50:20.589Z,4.90
2023-11-04T09:53:33.464Z,3.55
2023-11-04T09:56:42.045Z,2.74
2023-11-04T09:59:49.000Z,2.88
2023-11-04T10:02:55.061Z,3.37
2023-11-04T10:06:01.711Z,3.70
2023-11-04T10:09:07.718Z,3.03
2023-11-04T10:12:17.353Z,4.44
2023-11-04T10:15:24.573Z,4.39
2023-11-04T10:18:31.467Z,4.26
2023-11-04T10:21:37.779Z,3.53
2023-11-04T10:24:45.388Z,2.65
2023-11-04T10:27:53.896Z,2.52
2023-11-04T10:31:08.103Z,2.36
2023-11-04T10:34:19.988Z,2.58
2023-11-04T10:37:31.122Z,2.27
2023-11-04T10:40:38.898Z,2.42
2023-11-04T10:43:58.254Z,2.24
2023-11-04T10:47:26.484Z,2.34
2023-11-04T10:50:37.591Z,3.12
2023-11-04T10:53:52.696Z,2.28
2023-11-04T10:57:18.083Z,2.08
2023-11-04T11:00:30.608Z,2.95
2023-11-04T11:03:39.311Z,2.95
2023-11-04T11:06:46.720Z,2.34
2023-11-04T11:09:55.782Z,2.58
2023-11-04T11:13:12.857Z,2.68
2023-11-04T11:16:22.417Z,3.30
2023-11-04T11:19:28.297Z,3.26
2023-11-04T11:22:35.050Z,3.11
2023-11-04T11:25:43.003Z,3.12
2023-11-04T11:28:49.684Z,5.32
2023-11-04T11:32:09.801Z,3.06
2023-11-04T11:35:16.523Z,3.00
2023-11-04T11:38:23.793Z,3.17
2023-11-04T11:41:31.661Z,3.24
2023-11-04T11:44:38.194Z,3.02
2023-11-04T11:47:47.771Z,2.82
2023-11-04T11:50:53.777Z,3.15
2023-11-04T11:54:01.721Z,3.00
2023-11-04T11:57:12.932Z,3.62
2023-11-04T12:00:20.717Z,2.73
2023-11-04T12:03:29.981Z,2.65
2023-11-04T12:06:41.735Z,2.93
2023-11-04T12:09:48.869Z,3.22
2023-11-04T12:13:00.499Z,2.95
2023-11-04T12:16:07.162Z,4.59
2023-11-04T12:19:16.621Z,4.69
2023-11-04T12:22:27.291Z,2.85
2023-11-04T12:25:33.932Z,3.53
2023-11-04T12:28:42.495Z,3.73
2023-11-04T12:31:49.362Z,3.86
2023-11-04T12:35:00.234Z,6.88
2023-11-04T12:38:07.558Z,4.21
2023-11-04T12:41:15.333Z,11.10
2023-11-04T12:44:25.781Z,3.64
2023-11-04T12:47:34.817Z,3.49
2023-11-04T12:50:44.089Z,3.33
2023-11-04T12:53:50.161Z,2.88
2023-11-04T12:56:56.732Z,4.18
2023-11-04T13:00:05.579Z,3.92
2023-11-04T13:03:14.232Z,3.85
2023-11-04T13:06:22.790Z,4.61
2023-11-04T13:09:31.915Z,5.16
2023-11-04T13:12:37.916Z,7.39
2023-11-04T13:15:44.648Z,5.82
2023-11-04T13:18:51.779Z,7.00
2023-11-04T13:22:01.180Z,8.27
2023-11-04T13:25:09.099Z,5.98
2023-11-04T13:28:15.901Z,3.89
2023-11-04T13:31:21.982Z,2.95
2023-11-04T13:34:31.124Z,4.50
2023-11-04T13:37:40.125Z,5.35
2023-11-04T13:40:46.729Z,5.77
2023-11-04T13:43:55.533Z,9.41
2023-11-04T13:47:02.047Z,10.90
2023-11-04T13:50:10.192Z,8.13
2023-11-04T13:53:19.364Z,6.75
2023-11-04T13:56:25.291Z,6.62
2023-11-04T13:59:31.934Z,5.13
2023-11-04T14:02:37.836Z,5.61
2023-11-04T14:05:47.062Z,9.38
2023-11-04T14:08:55.983Z,9.85
2023-11-04T14:12:02.530Z,9.69
2023-11-04T14:15:09.596Z,9.30
2023-11-04T14:18:16.704Z,7.92
2023-11-04T14:21:22.868Z,8.08
2023-11-04T14:24:32.118Z,9.35
2023-11-04T14:27:38.600Z,7.55
2023-11-04T14:30:47.439Z,5.97
2023-11-04T14:33:53.457Z,9.66
2023-11-04T14:37:00.068Z,11.73
2023-11-04T14:40:14.754Z,8.47
2023-11-04T14:43:21.602Z,10.30
2023-11-04T14:46:27.637Z,6.63
2023-11-04T14:49:36.949Z,5.02
2023-11-04T14:52:42.950Z,6.35
2023-11-04T14:55:52.443Z,9.26
2023-11-04T14:58:58.334Z,9.58
2023-11-04T15:02:05.080Z,7.64
2023-11-04T15:05:13.427Z,11.66
2023-11-04T15:08:20.272Z,8.62
2023-11-04T15:11:28.889Z,9.26
2023-11-04T15:14:36.654Z,8.79
2023-11-04T15:17:43.252Z,17.52
2023-11-04T15:20:49.902Z,30.11
2023-11-04T15:23:55.980Z,24.50
2023-11-04T15:27:06.147Z,22.56
2023-11-04T15:30:13.419Z,13.41
2023-11-04T15:33:20.478Z,25.72
2023-11-04T15:36:26.446Z,24.82
2023-11-04T15:39:34.558Z,23.25
2023-11-04T15:42:45.399Z,31.35
2023-11-04T15:45:52.046Z,35.40
2023-11-04T15:48:57.965Z,25.38
2023-11-04T15:52:04.630Z,39.42
2023-11-04T15:55:11.633Z,33.91
2023-11-04T15:58:21.277Z,32.74
2023-11-04T16:01:27.189Z,36.51
2023-11-04T16:04:33.971Z,37.90
2023-11-04T16:07:42.386Z,36.00
2023-11-04T16:10:49.765Z,37.99
2023-11-04T16:13:58.217Z,54.84
2023-11-04T16:17:04.874Z,47.80
2023-11-04T16:20:13.459Z,65.56
2023-11-04T16:23:20.134Z,64.96
2023-11-04T16:26:26.093Z,40.74
2023-11-04T16:29:36.171Z,286.71
2023-11-04T16:32:44.510Z,630.77
2023-11-04T16:35:51.360Z,1983.33
2023-11-04T16:38:57.757Z,1972.07
2023-11-04T16:42:04.277Z,1550.67
2023-11-04T16:45:16.717Z,251.75
2023-11-04T16:48:24.349Z,344.76
2023-11-04T16:51:30.356Z,469.46
2023-11-04T16:54:52.904Z,55.71
2023-11-04T16:57:59.258Z,48.17
2023-11-04T17:01:10.395Z,42.69
2023-11-04T17:04:17.153Z,42.55
2023-11-04T17:07:30.199Z,41.65
2023-11-04T17:10:36.333Z,39.88
2023-11-04T17:13:46.923Z,48.34
2023-11-04T17:16:56.678Z,50.68
2023-11-04T17:20:19.301Z,46.37
2023-11-04T17:23:26.315Z,40.96
2023-11-04T17:26:33.930Z,39.11
2023-11-04T17:29:40.196Z,38.25
2023-11-04T17:32:51.326Z,40.57
2023-11-04T17:36:00.637Z,46.63
2023-11-04T17:39:08.444Z,56.94
2023-11-04T17:42:15.571Z,60.89
2023-11-04T17:45:27.045Z,68.55
2023-11-04T17:48:40.507Z,68.87
2023-11-04T17:51:47.180Z,63.61
2023-11-04T17:54:53.116Z,60.73
2023-11-04T17:58:02.719Z,56.31
2023-11-04T18:01:09.742Z,51.65
2023-11-04T18:04:20.662Z,50.62
2023-11-04T18:07:29.666Z,51.64
2023-11-04T18:10:36.379Z,53.30
2023-11-04T18:13:42.348Z,55.52
2023-11-04T18:16:51.510Z,60.44
2023-11-04T18:20:02.174Z,96.93
2023-11-04T18:23:09.071Z,76.81
2023-11-04T18:26:18.512Z,77.46
2023-11-04T18:29:25.872Z,77.02
2023-11-04T18:32:34.281Z,75.39
2023-11-04T18:35:56.908Z,76.48
2023-11-04T18:39:06.376Z,78.48
2023-11-04T18:42:21.647Z,82.89
2023-11-04T18:45:31.833Z,80.92
2023-11-04T18:48:42.279Z,89.08
2023-11-04T18:51:54.081Z,88.38
2023-11-04T18:55:02.566Z,83.27
2023-11-04T18:58:13.610Z,77.00
2023-11-04T19:01:25.693Z,86.81
2023-11-04T19:04:41.977Z,90.08
2023-11-04T19:07:51.338Z,98.69
2023-11-04T19:11:01.564Z,91.06
2023-11-04T19:14:10.397Z,97.93
2023-11-04T19:17:17.353Z,84.48
2023-11-04T19:20:27.704Z,81.79
2023-11-04T19:23:37.625Z,80.11
2023-11-04T19:26:48.594Z,119.68
2023-11-04T19:29:58.582Z,111.81
2023-11-04T19:33:14.271Z,89.51
2023-11-04T19:36:27.236Z,92.58
2023-11-04T19:39:51.881Z,94.63
2023-11-04T19:43:02.189Z,86.91
2023-11-04T19:46:11.937Z,79.13
2023-11-04T19:49:27.374Z,82.77
2023-11-04T19:52:38.974Z,83.64
2023-11-04T19:55:56.183Z,85.00
2023-11-04T19:59:06.363Z,100.60
2023-11-04T20:02:16.451Z,110.24
2023-11-04T20:05:29.716Z,115.56
2023-11-04T20:08:44.862Z,108.12
2023-11-04T20:12:02.505Z,108.91
2023-11-04T20:15:12.976Z,106.56
2023-11-04T20:18:22.949Z,99.16
2023-11-04T20:21:37.245Z,100.21
2023-11-04T20:24:54.106Z,96.35
2023-11-04T20:28:06.706Z,90.15
2023-11-04T20:31:13.790Z,88.10
2023-11-04T20:34:25.022Z,85.60
2023-11-04T20:37:33.736Z,87.42
2023-11-04T20:40:40.347Z,88.18
2023-11-04T20:43:55.570Z,92.02
2023-11-04T20:47:05.546Z,92.96
2023-11-04T20:50:18.439Z,91.67
2023-11-04T20:53:26.170Z,89.10
2023-11-04T20:56:32.918Z,85.70
2023-11-04T20:59:46.083Z,85.83
2023-11-04T21:03:07.557Z,86.97
2023-11-04T21:06:20.618Z,87.48
2023-11-04T21:09:36.510Z,85.06
2023-11-04T21:12:46.915Z,82.39
2023-11-04T21:15:56.113Z,82.19
2023-11-04T21:19:02.498Z,83.15
2023-11-04T21:22:18.183Z,83.48
2023-11-04T21:25:24.734Z,85.16
2023-11-04T21:28:31.757Z,85.34
2023-11-04T21:31:41.091Z,86.17
2023-11-04T21:34:49.978Z,84.87
2023-11-04T21:37:55.935Z,82.75
2023-11-04T21:41:03.626Z,83.30
2023-11-04T21:44:11.178Z,81.00
2023-11-04T21:47:21.591Z,83.53
2023-11-04T21:50:30.659Z,83.69
2023-11-04T21:53:37.731Z,83.46
2023-11-04T21:56:46.652Z,85.36
2023-11-04T21:59:55.845Z,84.97
2023-11-04T22:03:06.089Z,82.92
2023-11-04T22:06:13.117Z,80.18
2023-11-04T22:09:20.344Z,80.12
2023-11-04T22:12:33.991Z,78.93
2023-11-04T22:15:40.174Z,78.47
2023-11-04T22:18:50.038Z,78.80
2023-11-04T22:21:57.618Z,77.61
2023-11-04T22:25:04.621Z,79.00
2023-11-04T22:28:11.416Z,75.74
2023-11-04T22:31:21.266Z,79.27
2023-11-04T22:34:30.212Z,80.14
2023-11-04T22:37:42.418Z,75.27
2023-11-04T22:40:49.429Z,71.49
2023-11-04T22:43:56.626Z,70.18
2023-11-04T22:47:03.882Z,69.88
2023-11-04T22:50:15.424Z,69.57
2023-11-04T22:53:21.942Z,68.18
2023-11-04T22:56:31.904Z,66.99
2023-11-04T22:59:44.277Z,66.63
2023-11-04T23:02:53.360Z,64.98
2023-11-04T23:06:06.077Z,64.93
2023-11-04T23:09:14.646Z,65.15
2023-11-04T23:12:20.702Z,68.13
2023-11-04T23:15:29.722Z,73.72
2023-11-04T23:18:43.493Z,72.32
2023-11-04T23:21:53.013Z,69.71
2023-11-04T23:25:04.811Z,67.93
2023-11-04T23:28:18.277Z,66.50
2023-11-04T23:31:26.765Z,65.79
2023-11-04T23:34:33.558Z,65.14
2023-11-04T23:37:46.360Z,66.59
2023-11-04T23:40:58.153Z,68.63
2023-11-04T23:44:06.555Z,67.58
2023-11-04T23:47:13.766Z,62.67
2023-11-04T23:50:19.798Z,63.96
2023-11-04T23:53:31.566Z,65.92
2023-11-04T23:56:45.066Z,70.81
2023-11-04T23:59:54.173Z,62.98
